createdAt,value
2017-08-09T00:00:43.044Z,5.00
2017-08-09T00:03:10.577Z,4.70
2017-08-09T00:05:38.112Z,3.10
2017-08-09T00:08:05.846Z,3.67
2017-08-09T00:10:33.382Z,3.97
2017-08-09T00:13:00.916Z,5.80
2017-08-09T00:15:29.294Z,4.10
2017-08-09T00:17:57.593Z,3.47
2017-08-09T00:20:25.133Z,3.70
2017-08-09T00:22:53.472Z,4.20
2017-08-09T00:25:21.004Z,5.47
2017-08-09T00:27:48.537Z,8.30
2017-08-09T00:30:16.140Z,4.70
2017-08-09T00:32:43.678Z,8.10
2017-08-09T00:35:11.225Z,4.70
2017-08-09T00:37:38.801Z,5.03
2017-08-09T00:40:06.654Z,4.70
2017-08-09T00:42:34.197Z,6.10
2017-08-09T00:45:01.801Z,9.50
2017-08-09T00:47:29.437Z,5.57
2017-08-09T00:49:56.972Z,6.27
2017-08-09T00:52:24.576Z,5.70
2017-08-09T00:54:52.119Z,4.97
2017-08-09T00:57:19.661Z,6.90
2017-08-09T00:59:47.249Z,6.17
2017-08-09T01:02:14.783Z,5.03
2017-08-09T01:04:42.329Z,9.30
2017-08-09T01:07:09.892Z,6.73
2017-08-09T01:09:37.420Z,6.20
2017-08-09T01:12:04.952Z,4.97
2017-08-09T01:14:32.554Z,13.53
2017-08-09T01:17:00.089Z,7.43
2017-08-09T01:19:27.638Z,7.23
2017-08-09T01:21:55.257Z,9.10
2017-08-09T01:24:22.792Z,7.20
2017-08-09T01:26:50.330Z,7.30
2017-08-09T01:29:17.888Z,6.57
2017-08-09T01:31:45.429Z,7.20
2017-08-09T01:34:12.964Z,8.00
2017-08-09T01:36:40.561Z,6.57
2017-08-09T01:39:08.102Z,8.43
2017-08-09T01:41:36.077Z,12.10
2017-08-09T01:44:03.645Z,10.40
2017-08-09T01:46:31.184Z,19.47
2017-08-09T01:48:58.715Z,15.33
2017-08-09T01:51:26.284Z,9.47
2017-08-09T01:53:54.597Z,12.63
2017-08-09T01:56:22.137Z,7.60
2017-08-09T01:58:50.551Z,9.30
2017-08-09T02:01:18.085Z,8.77
2017-08-09T02:03:45.620Z,7.90
2017-08-09T02:06:13.193Z,9.80
2017-08-09T02:08:41.496Z,7.73
2017-08-09T02:11:09.032Z,7.13
2017-08-09T02:13:37.369Z,6.63
2017-08-09T02:16:04.908Z,7.87
2017-08-09T02:18:32.449Z,8.57
2017-08-09T02:21:00.057Z,12.07
2017-08-09T02:23:27.602Z,11.00
2017-08-09T02:25:55.146Z,11.70
2017-08-09T02:28:22.758Z,9.50
2017-08-09T02:30:51.072Z,11.33
2017-08-09T02:33:18.608Z,11.53
2017-08-09T02:35:46.933Z,9.33
2017-08-09T02:38:14.465Z,12.60
2017-08-09T02:40:42.005Z,11.13
2017-08-09T02:43:10.308Z,7.80
2017-08-09T02:45:37.842Z,10.37
2017-08-09T02:48:05.377Z,9.33
2017-08-09T02:50:32.948Z,8.80
2017-08-09T02:53:01.266Z,13.40
2017-08-09T02:55:29.006Z,10.47
2017-08-09T02:57:56.574Z,10.43
2017-08-09T03:00:24.113Z,14.33
2017-08-09T03:02:51.677Z,13.20
2017-08-09T03:05:19.286Z,10.00
2017-08-09T03:07:46.833Z,12.30
2017-08-09T03:10:14.369Z,9.23
2017-08-09T03:12:41.939Z,8.00
2017-08-09T03:15:09.476Z,6.03
2017-08-09T03:17:37.014Z,5.90
2017-08-09T03:20:04.568Z,6.07
2017-08-09T03:22:32.101Z,5.27
2017-08-09T03:24:59.636Z,5.13
2017-08-09T03:27:27.246Z,7.00
2017-08-09T03:29:54.796Z,3.83
2017-08-09T03:32:22.338Z,8.27
2017-08-09T03:34:49.953Z,4.73
2017-08-09T03:37:18.257Z,5.80
2017-08-09T03:39:45.800Z,7.00
2017-08-09T03:42:14.142Z,5.43
2017-08-09T03:44:42.164Z,7.00
2017-08-09T03:47:09.702Z,8.33
2017-08-09T03:49:38.081Z,4.10
2017-08-09T03:52:06.399Z,4.73
2017-08-09T03:54:33.942Z,6.30
2017-08-09T03:57:01.504Z,5.97
2017-08-09T03:59:29.048Z,8.70
2017-08-09T04:01:56.589Z,8.40
2017-08-09T04:04:24.920Z,5.37
2017-08-09T04:06:52.457Z,8.37
2017-08-09T04:09:19.997Z,10.77
2017-08-09T04:11:47.605Z,19.30
2017-08-09T04:14:15.151Z,15.90
2017-08-09T04:16:42.715Z,12.03
2017-08-09T04:19:10.288Z,8.57
2017-08-09T04:21:37.831Z,8.87
2017-08-09T04:24:05.369Z,7.90
2017-08-09T04:26:32.997Z,13.10
2017-08-09T04:29:00.541Z,8.60
2017-08-09T04:31:28.085Z,10.30
2017-08-09T04:33:55.703Z,9.60
2017-08-09T04:36:24.015Z,13.33
2017-08-09T04:38:51.962Z,11.60
2017-08-09T04:41:19.572Z,13.90
2017-08-09T04:43:47.113Z,11.17
2017-08-09T04:46:14.901Z,7.50
2017-08-09T04:48:42.464Z,6.80
2017-08-09T04:51:10.004Z,11.80
2017-08-09T04:53:37.546Z,8.37
2017-08-09T04:56:05.148Z,11.43
2017-08-09T04:58:32.725Z,12.30
2017-08-09T05:01:01.028Z,9.60
2017-08-09T05:03:28.596Z,9.77
2017-08-09T05:05:56.129Z,7.13
2017-08-09T05:08:23.679Z,7.43
2017-08-09T05:10:51.246Z,6.30
2017-08-09T05:13:19.553Z,8.00
2017-08-09T05:15:47.088Z,6.30
2017-08-09T05:18:15.469Z,7.93
2017-08-09T05:20:43.815Z,5.30
2017-08-09T05:23:11.359Z,6.20
2017-08-09T05:25:38.921Z,5.23
2017-08-09T05:28:06.457Z,6.67
2017-08-09T05:30:33.989Z,6.03
2017-08-09T05:33:02.316Z,7.67
2017-08-09T05:35:29.853Z,11.53
2017-08-09T05:37:57.389Z,11.03
2017-08-09T05:40:25.157Z,9.27
2017-08-09T05:42:52.700Z,8.87
2017-08-09T05:45:20.246Z,8.30
2017-08-09T05:47:48.309Z,7.67
2017-08-09T05:50:15.849Z,6.87
2017-08-09T05:52:43.393Z,7.13
2017-08-09T05:55:10.965Z,6.80
2017-08-09T05:57:38.513Z,6.83
2017-08-09T06:00:06.048Z,6.20
2017-08-09T06:02:33.646Z,4.63
2017-08-09T06:05:01.181Z,6.30
2017-08-09T06:07:28.718Z,7.03
2017-08-09T06:09:56.278Z,5.40
2017-08-09T06:12:23.822Z,5.20
2017-08-09T06:14:52.134Z,4.63
2017-08-09T06:17:19.700Z,4.83
2017-08-09T06:19:47.236Z,4.67
2017-08-09T06:22:14.781Z,6.23
2017-08-09T06:24:42.393Z,5.93
2017-08-09T06:27:09.933Z,5.07
2017-08-09T06:29:37.478Z,4.67
2017-08-09T06:32:05.087Z,8.20
2017-08-09T06:34:32.637Z,4.50
2017-08-09T06:37:00.191Z,3.90
2017-08-09T06:39:27.761Z,5.20
2017-08-09T06:41:55.293Z,3.80
2017-08-09T06:44:22.838Z,3.60
2017-08-09T06:46:50.629Z,3.53
2017-08-09T06:49:18.229Z,3.00
2017-08-09T06:51:45.774Z,2.40
2017-08-09T06:54:13.376Z,2.80
2017-08-09T06:56:41.680Z,2.23
2017-08-09T06:59:09.217Z,7.37
2017-08-09T07:01:37.546Z,2.87
2017-08-09T07:04:05.093Z,1.30
2017-08-09T07:06:32.636Z,1.40
2017-08-09T07:09:00.245Z,1.70
2017-08-09T07:11:27.786Z,1.43
2017-08-09T07:13:55.325Z,1.30
2017-08-09T07:16:22.889Z,1.50
2017-08-09T07:18:50.428Z,1.30
2017-08-09T07:21:17.977Z,1.20
2017-08-09T07:23:45.557Z,1.30
2017-08-09T07:26:13.102Z,1.00
2017-08-09T07:28:40.674Z,1.20
2017-08-09T07:31:08.304Z,1.30
2017-08-09T07:33:36.626Z,1.47
2017-08-09T07:36:04.160Z,1.97
2017-08-09T07:38:31.737Z,2.30
2017-08-09T07:40:59.273Z,2.23
2017-08-09T07:43:26.818Z,2.50
2017-08-09T07:45:55.153Z,4.00
2017-08-09T07:48:22.717Z,2.60
2017-08-09T07:50:50.645Z,2.00
2017-08-09T07:53:18.257Z,1.80
2017-08-09T07:55:45.798Z,2.40
2017-08-09T07:58:13.334Z,3.80
2017-08-09T08:00:40.957Z,2.20
2017-08-09T08:03:08.496Z,2.40
2017-08-09T08:05:36.037Z,2.30
2017-08-09T08:08:04.368Z,1.43
2017-08-09T08:10:31.905Z,1.50
2017-08-09T08:12:59.437Z,2.57
2017-08-09T08:15:27.153Z,2.07
2017-08-09T08:17:55.473Z,1.73
2017-08-09T08:20:23.021Z,2.20
2017-08-09T08:22:50.591Z,2.50
2017-08-09T08:25:18.133Z,3.13
2017-08-09T08:27:45.682Z,1.27
2017-08-09T08:30:13.257Z,1.70
2017-08-09T08:32:40.802Z,1.80
2017-08-09T08:35:08.345Z,2.27
2017-08-09T08:37:36.761Z,2.07
2017-08-09T08:40:04.297Z,3.40
2017-08-09T08:42:31.841Z,3.73
2017-08-09T08:44:59.432Z,2.40
2017-08-09T08:47:26.981Z,2.23
2017-08-09T08:49:54.529Z,4.33
2017-08-09T08:52:22.339Z,2.10
2017-08-09T08:54:49.886Z,1.60
2017-08-09T08:57:17.428Z,3.20
2017-08-09T08:59:44.992Z,1.10
2017-08-09T09:02:12.549Z,1.40
2017-08-09T09:04:40.093Z,0.97
2017-08-09T09:07:07.705Z,1.00
2017-08-09T09:09:35.244Z,0.83
2017-08-09T09:12:02.789Z,1.10
2017-08-09T09:14:30.478Z,4.10
2017-08-09T09:16:58.021Z,1.00
2017-08-09T09:19:25.556Z,1.53
2017-08-09T09:21:53.120Z,1.50
2017-08-09T09:24:21.425Z,1.90
2017-08-09T09:26:48.960Z,2.70
2017-08-09T09:29:17.305Z,1.90
2017-08-09T09:31:44.846Z,1.57
2017-08-09T09:34:12.386Z,2.27
2017-08-09T09:36:39.990Z,2.10
2017-08-09T09:39:07.536Z,3.03
2017-08-09T09:41:35.069Z,1.20
2017-08-09T09:44:02.632Z,1.30
2017-08-09T09:46:30.196Z,1.60
2017-08-09T09:48:57.906Z,1.10
2017-08-09T09:51:26.810Z,6.33
2017-08-09T09:53:58.369Z,1.10
2017-08-09T09:56:25.946Z,1.70
2017-08-09T09:58:53.569Z,0.90
2017-08-09T10:01:21.903Z,0.97
2017-08-09T10:03:49.474Z,1.00
2017-08-09T10:06:17.102Z,0.80
2017-08-09T10:08:44.668Z,0.90
2017-08-09T10:11:12.247Z,1.13
2017-08-09T10:13:39.904Z,1.00
2017-08-09T10:16:07.447Z,2.37
2017-08-09T10:18:35.003Z,1.27
2017-08-09T10:21:02.614Z,2.47
2017-08-09T10:23:30.165Z,1.30
2017-08-09T10:25:57.718Z,1.20
2017-08-09T10:28:25.298Z,0.87
2017-08-09T10:30:52.852Z,1.43
2017-08-09T10:33:20.478Z,1.43
2017-08-09T10:35:48.066Z,1.50
2017-08-09T10:38:15.623Z,2.07
2017-08-09T10:40:43.186Z,3.40
2017-08-09T10:43:10.793Z,2.17
2017-08-09T10:45:38.401Z,2.00
2017-08-09T10:48:05.995Z,1.73
2017-08-09T10:50:33.597Z,1.37
2017-08-09T10:53:01.151Z,1.80
2017-08-09T10:55:29.775Z,2.50
2017-08-09T10:57:57.372Z,2.00
2017-08-09T11:00:24.917Z,2.60
2017-08-09T11:02:52.458Z,1.60
2017-08-09T11:05:20.074Z,1.80
2017-08-09T11:07:47.886Z,6.00
2017-08-09T11:10:15.442Z,2.13
2017-08-09T11:12:43.049Z,4.07
2017-08-09T11:15:10.725Z,2.10
2017-08-09T11:17:38.335Z,2.30
2017-08-09T11:20:05.970Z,2.70
2017-08-09T11:22:33.538Z,2.60
2017-08-09T11:25:01.091Z,3.07
2017-08-09T11:27:28.751Z,3.07
2017-08-09T11:29:56.314Z,2.70
2017-08-09T11:32:23.874Z,3.40
2017-08-09T11:34:51.605Z,3.37
2017-08-09T11:37:19.179Z,4.97
2017-08-09T11:39:46.738Z,3.30
2017-08-09T11:42:14.342Z,4.07
2017-08-09T11:44:41.912Z,4.43
2017-08-09T11:47:09.481Z,4.20
2017-08-09T11:49:37.434Z,4.37
2017-08-09T11:52:05.022Z,4.27
2017-08-09T11:54:32.586Z,4.50
2017-08-09T11:57:00.393Z,4.57
2017-08-09T11:59:28.005Z,5.17
2017-08-09T12:01:55.580Z,5.93
2017-08-09T12:04:23.167Z,5.70
2017-08-09T12:06:50.773Z,6.33
2017-08-09T12:09:18.364Z,5.87
2017-08-09T12:11:45.981Z,4.80
2017-08-09T12:14:13.544Z,4.43
2017-08-09T12:16:41.120Z,5.07
2017-08-09T12:19:08.726Z,4.23
2017-08-09T12:21:36.300Z,3.47
2017-08-09T12:24:04.308Z,3.63
2017-08-09T12:26:32.680Z,3.10
2017-08-09T12:29:00.221Z,3.23
2017-08-09T12:31:27.802Z,3.27
2017-08-09T12:33:55.384Z,3.30
2017-08-09T12:36:23.731Z,3.27
2017-08-09T12:38:51.285Z,4.57
2017-08-09T12:41:18.901Z,3.57
2017-08-09T12:43:46.482Z,2.93
2017-08-09T12:46:14.050Z,2.40
2017-08-09T12:48:41.641Z,2.37
2017-08-09T12:51:09.182Z,2.63
2017-08-09T12:53:36.724Z,2.70
2017-08-09T12:56:04.325Z,2.80
2017-08-09T12:58:32.222Z,3.03
2017-08-09T13:00:59.772Z,2.63
2017-08-09T13:03:27.393Z,3.37
2017-08-09T13:05:54.938Z,2.37
2017-08-09T13:08:22.490Z,1.83
2017-08-09T13:10:50.069Z,2.90
2017-08-09T13:13:17.627Z,1.90
2017-08-09T13:15:45.185Z,2.70
2017-08-09T13:18:13.853Z,2.93
2017-08-09T13:20:41.393Z,4.97
2017-08-09T13:23:08.936Z,3.40
2017-08-09T13:25:36.543Z,2.10
2017-08-09T13:28:04.082Z,2.60
2017-08-09T13:30:31.625Z,3.23
2017-08-09T13:32:59.220Z,2.30
2017-08-09T13:35:26.765Z,1.90
2017-08-09T13:37:54.309Z,1.90
2017-08-09T13:40:21.913Z,1.77
2017-08-09T13:42:49.465Z,1.93
2017-08-09T13:45:17.009Z,2.23
2017-08-09T13:47:44.569Z,6.93
2017-08-09T13:50:12.105Z,1.93
2017-08-09T13:52:40.406Z,2.90
2017-08-09T13:55:07.971Z,3.50
2017-08-09T13:57:35.509Z,3.50
2017-08-09T14:00:03.226Z,2.50
2017-08-09T14:02:30.838Z,3.40
2017-08-09T14:04:58.395Z,3.03
2017-08-09T14:07:25.949Z,3.57
2017-08-09T14:09:53.563Z,3.57
2017-08-09T14:12:21.121Z,2.47
2017-08-09T14:14:48.661Z,3.93
2017-08-09T14:17:16.230Z,3.77
2017-08-09T14:19:43.777Z,2.63
2017-08-09T14:22:11.403Z,4.97
2017-08-09T14:24:39.017Z,2.97
2017-08-09T14:27:06.563Z,3.20
2017-08-09T14:29:34.110Z,2.83
2017-08-09T14:32:01.737Z,4.43
2017-08-09T14:34:29.333Z,7.77
2017-08-09T14:36:57.043Z,6.13
2017-08-09T14:39:24.703Z,2.70
2017-08-09T14:41:52.245Z,2.80
2017-08-09T14:44:19.785Z,3.30
2017-08-09T14:46:48.644Z,2.70
2017-08-09T14:49:16.225Z,2.57
2017-08-09T14:51:43.777Z,7.60
2017-08-09T14:54:11.352Z,5.93
2017-08-09T14:56:38.933Z,6.97
2017-08-09T14:59:06.486Z,2.90
2017-08-09T15:01:34.909Z,4.60
2017-08-09T15:04:02.518Z,2.43
2017-08-09T15:06:30.099Z,2.17
2017-08-09T15:08:57.709Z,3.50
2017-08-09T15:11:25.285Z,5.23
2017-08-09T15:13:52.840Z,3.20
2017-08-09T15:16:20.445Z,2.67
2017-08-09T15:18:48.011Z,2.50
2017-08-09T15:21:15.623Z,2.93
2017-08-09T15:23:43.246Z,3.40
2017-08-09T15:26:10.890Z,3.40
2017-08-09T15:28:39.407Z,3.03
2017-08-09T15:31:07.051Z,3.20
2017-08-09T15:33:35.435Z,3.27
2017-08-09T15:36:02.992Z,4.20
2017-08-09T15:38:30.638Z,3.23
2017-08-09T15:40:58.275Z,3.10
2017-08-09T15:43:25.894Z,3.40
2017-08-09T15:45:54.302Z,3.40
2017-08-09T15:48:21.880Z,3.10
2017-08-09T15:50:49.470Z,4.63
2017-08-09T15:53:17.085Z,3.97
2017-08-09T15:55:45.415Z,3.47
2017-08-09T15:58:13.043Z,3.17
2017-08-09T16:00:41.484Z,2.93
2017-08-09T16:03:09.730Z,3.40
2017-08-09T16:05:37.297Z,4.70
2017-08-09T16:08:07.045Z,3.00
2017-08-09T16:10:34.640Z,8.60
2017-08-09T16:13:02.292Z,2.60
2017-08-09T16:15:29.885Z,2.80
2017-08-09T16:17:57.431Z,2.37
2017-08-09T16:20:24.969Z,2.33
2017-08-09T16:22:52.538Z,2.10
2017-08-09T16:25:20.092Z,1.70
2017-08-09T16:27:47.653Z,2.83
2017-08-09T16:30:17.533Z,2.83
2017-08-09T16:32:48.489Z,2.80
2017-08-09T16:35:16.270Z,4.22
2017-08-09T16:37:51.592Z,2.97
2017-08-09T16:40:19.218Z,1.77
2017-08-09T16:42:47.661Z,2.50
2017-08-09T16:45:16.475Z,2.10
2017-08-09T16:47:45.054Z,2.40
2017-08-09T16:50:13.966Z,2.50
2017-08-09T16:52:42.362Z,2.37
2017-08-09T16:55:09.965Z,2.80
2017-08-09T16:57:41.442Z,2.40
2017-08-09T17:00:10.070Z,2.33
2017-08-09T17:02:38.399Z,4.10
2017-08-09T17:05:06.193Z,2.00
2017-08-09T17:07:33.830Z,2.40
2017-08-09T17:10:05.909Z,3.97
2017-08-09T17:12:33.561Z,2.30
2017-08-09T17:15:05.694Z,7.07
2017-08-09T17:17:36.585Z,3.97
2017-08-09T17:20:05.273Z,2.50
2017-08-09T17:22:32.842Z,2.10
2017-08-09T17:25:19.960Z,4.27
2017-08-09T17:27:47.533Z,2.57
2017-08-09T17:30:15.123Z,1.90
2017-08-09T17:32:42.762Z,3.53
2017-08-09T17:35:10.305Z,2.80
2017-08-09T17:37:37.887Z,2.30
2017-08-09T17:40:05.474Z,2.87
2017-08-09T17:42:33.072Z,2.97
2017-08-09T17:45:00.665Z,4.33
2017-08-09T17:47:28.277Z,3.87
2017-08-09T17:49:55.829Z,3.60
2017-08-09T17:52:24.262Z,3.20
2017-08-09T17:54:51.930Z,4.50
2017-08-09T17:57:22.327Z,3.20
2017-08-09T17:59:49.897Z,2.77
2017-08-09T18:02:17.563Z,3.57
2017-08-09T18:04:45.112Z,2.80
2017-08-09T18:07:13.190Z,2.73
2017-08-09T18:09:40.766Z,4.97
2017-08-09T18:12:08.456Z,2.80
2017-08-09T18:14:36.012Z,2.87
2017-08-09T18:17:03.617Z,3.43
2017-08-09T18:19:31.254Z,3.40
2017-08-09T18:21:59.700Z,3.30
2017-08-09T18:24:27.272Z,3.40
2017-08-09T18:26:54.812Z,3.00
2017-08-09T18:29:22.374Z,3.07
2017-08-09T18:31:49.950Z,4.33
2017-08-09T18:34:17.489Z,6.17
2017-08-09T18:36:45.043Z,4.63
2017-08-09T18:39:23.822Z,3.07
2017-08-09T18:48:21.734Z,3.20
2017-08-09T18:50:49.281Z,3.63
2017-08-09T18:53:16.821Z,6.50
2017-08-09T18:55:45.016Z,2.60
2017-08-09T18:58:12.558Z,3.90
2017-08-09T19:00:40.109Z,4.20
2017-08-09T19:03:08.804Z,3.30
2017-08-09T19:05:37.381Z,4.00
2017-08-09T19:08:06.098Z,4.37
2017-08-09T19:14:47.597Z,4.07
2017-08-09T19:17:15.733Z,3.70
2017-08-09T19:19:44.294Z,6.20
2017-08-09T19:22:12.634Z,3.63
2017-08-09T19:24:40.209Z,4.43
2017-08-09T19:27:07.819Z,4.87
2017-08-09T19:29:35.411Z,6.43
2017-08-09T19:32:03.022Z,3.40
2017-08-09T19:34:30.589Z,3.83
2017-08-09T19:36:58.142Z,3.87
2017-08-09T19:39:25.761Z,5.97
2017-08-09T19:41:56.974Z,7.93
2017-08-09T19:44:24.590Z,7.70
2017-08-09T19:46:52.997Z,5.93
2017-08-09T19:49:22.328Z,5.93
2017-08-09T19:51:51.330Z,5.33
2017-08-09T19:54:18.968Z,4.97
2017-08-09T19:56:46.517Z,4.80
2017-08-09T19:59:16.832Z,4.93
2017-08-09T20:01:44.510Z,4.67
2017-08-09T20:04:13.006Z,4.90
2017-08-09T20:06:40.603Z,5.67
2017-08-09T20:09:08.783Z,4.70
2017-08-09T20:11:36.348Z,4.30
2017-08-09T20:14:03.897Z,4.77
2017-08-09T20:16:36.095Z,5.63
2017-08-09T20:19:03.678Z,4.93
2017-08-09T20:21:31.258Z,5.63
2017-08-09T20:24:00.290Z,5.53
2017-08-09T20:26:30.648Z,6.77
2017-08-09T20:28:58.246Z,7.00
2017-08-09T20:31:25.832Z,8.30
2017-08-09T20:33:53.398Z,8.60
2017-08-09T20:36:20.935Z,9.43
2017-08-09T20:38:48.500Z,10.53
2017-08-09T20:41:16.054Z,9.70
2017-08-09T20:43:43.608Z,10.93
2017-08-09T20:46:11.193Z,9.03
2017-08-09T20:48:38.745Z,9.20
2017-08-09T20:51:06.286Z,9.23
2017-08-09T20:53:33.913Z,9.30
2017-08-09T20:56:01.498Z,9.70
2017-08-09T20:58:29.062Z,8.33
2017-08-09T21:00:57.900Z,8.40
2017-08-09T21:03:25.454Z,8.73
2017-08-09T21:05:53.764Z,8.13
2017-08-09T21:08:21.373Z,8.00
2017-08-09T21:10:49.732Z,8.20
2017-08-09T21:13:17.273Z,8.67
2017-08-09T21:15:44.841Z,7.80
2017-08-09T21:18:12.384Z,8.03
2017-08-09T21:20:39.943Z,9.40
2017-08-09T21:23:07.528Z,9.93
2017-08-09T21:25:35.070Z,7.73
2017-08-09T21:28:02.613Z,8.27
2017-08-09T21:30:30.238Z,8.00
2017-08-09T21:32:57.833Z,7.80
2017-08-09T21:35:25.378Z,8.87
2017-08-09T21:37:52.954Z,7.50
2017-08-09T21:40:20.513Z,7.73
2017-08-09T21:42:48.065Z,10.93
2017-08-09T21:45:15.645Z,8.93
2017-08-09T21:47:43.207Z,9.17
2017-08-09T21:50:10.764Z,8.03
2017-08-09T21:52:38.373Z,8.07
2017-08-09T21:55:05.925Z,6.57
2017-08-09T21:57:33.482Z,7.23
2017-08-09T22:00:01.070Z,6.23
2017-08-09T22:02:28.608Z,6.03
2017-08-09T22:04:56.154Z,6.40
2017-08-09T22:07:23.793Z,6.87
2017-08-09T22:09:51.349Z,6.40
2017-08-09T22:12:19.126Z,8.50
2017-08-09T22:14:46.732Z,6.70
2017-08-09T22:17:14.269Z,6.40
2017-08-09T22:19:41.825Z,6.23
2017-08-09T22:22:09.405Z,6.73
2017-08-09T22:24:36.993Z,7.33
2017-08-09T22:27:04.533Z,8.60
2017-08-09T22:29:32.111Z,8.80
2017-08-09T22:31:59.669Z,9.10
2017-08-09T22:34:27.228Z,10.80
2017-08-09T22:36:55.593Z,17.00
2017-08-09T22:39:23.132Z,9.07
2017-08-09T22:41:50.673Z,10.27
2017-08-09T22:44:18.271Z,10.13
2017-08-09T22:46:45.818Z,9.50
2017-08-09T22:49:13.382Z,8.73
2017-08-09T22:51:41.141Z,9.00
2017-08-09T22:54:08.727Z,12.10
2017-08-09T22:56:36.342Z,12.00
2017-08-09T22:59:04.126Z,9.77
2017-08-09T23:01:31.693Z,10.20
2017-08-09T23:03:59.290Z,12.00
2017-08-09T23:06:26.918Z,12.37
2017-08-09T23:08:54.464Z,12.10
2017-08-09T23:11:22.097Z,21.40
2017-08-09T23:13:49.965Z,14.13
2017-08-09T23:16:17.861Z,12.17
2017-08-09T23:18:45.470Z,12.00
2017-08-09T23:21:13.862Z,11.93
2017-08-09T23:23:41.420Z,15.63
2017-08-09T23:26:09.219Z,12.10
2017-08-09T23:28:36.864Z,11.17
2017-08-09T23:31:04.416Z,26.83
2017-08-09T23:33:31.966Z,12.93
2017-08-09T23:35:59.545Z,11.30
2017-08-09T23:38:27.092Z,12.23
2017-08-09T23:40:54.637Z,13.10
2017-08-09T23:43:22.241Z,12.50
2017-08-09T23:45:49.797Z,12.00
2017-08-09T23:48:17.343Z,13.80
2017-08-09T23:50:44.930Z,11.73
2017-08-09T23:53:12.482Z,11.57
2017-08-09T23:55:40.073Z,13.30
2017-08-09T23:58:07.674Z,12.97
